Terminal Aerodrome Forecast
Issued by NWS

Home | Current Version | Previous Version | Text Only | Print | Product List | Glossary On
Versions: 1 2 3 4 5 6 7 8 9 10 11 12 13 14 15 16 17 18 19 20 21 22 23 24 25 26 27 28 29 30 31 32 33 34 35 36 37 38 39 40 41 42 43 44 45 46 47 48 49 50
000
FTUS41 KRNK 240843 AAA
TAFBCB
TAF AMD
KBCB 240843Z 2409/2506 08004KT P6SM OVC005
     FM241300 11004KT 4SM BR VCSH OVC006
     FM241500 10008KT 4SM -SHRA BR OVC007
     FM242000 11009KT 5SM SHRA VCTS SCT004 OVC015CB=

USA.gov is the U.S. government's official web portal to all federal, state and local government web resources and services.